Adagio — 2BLL3 — position and weather

sailwx.info

Track history (hours):
 
Tides and Currents Weather Stations Pressure Air Temp Water Temp Dewpoint Dewpoint Depression Visibility Wind Speed Wind Dir Waves Ship Positions

Adagio

Last reported at 2017-Dec-13 07:07 UTC. Time now 2017-Dec-18 11:16 UTC.
Position S 27°36' E 153°19'.

Length 22 m.

Type: Pleasure craft. MMSI: 235067171.

Date/timePositionNaut miles runAvg speedWind from/ knotsBaromVisibWave heightAir tempDewpointWater temp
2017-Dec-13 07:07S 27°36' E 153°19'1 9.1
2017-Dec-13 07:00S 27°37' E 153°19'4 7.1
2017-Dec-13 06:30S 27°40' E 153°22'4 8.1
2017-Dec-13 06:00S 27°44' E 153°22'3 5.8
2017-Dec-13 05:30S 27°47' E 153°23'3 5.8
2017-Dec-13 05:00S 27°49' E 153°24'3 6.2
2017-Dec-13 04:30S 27°52' E 153°24'2 4.2
2017-Dec-13 04:00S 27°51' E 153°22'2 3.0
2017-Dec-13 03:30S 27°52' E 153°20'0 0.2
2017-Dec-13 02:38S 27°52' E 153°20'0 0.0
2017-Dec-12 23:02S 27°52' E 153°20'0 0.0
2017-Dec-12 18:32S 27°52' E 153°20'0 0.0
2017-Dec-12 15:50S 27°52' E 153°20'0 0.0
2017-Dec-12 10:47S 27°52' E 153°20'0 0.0
2017-Dec-12 01:38S 27°52' E 153°20'0 0.0
2017-Dec-12 01:26S 27°52' E 153°20'0 0.0
2017-Dec-11 11:02S 27°52' E 153°20'0 0.0
2017-Dec-11 10:56S 27°52' E 153°20'0 0.0
2017-Dec-11 10:26S 27°52' E 153°20'0 0.0
2017-Dec-11 09:44S 27°52' E 153°20'0 0.0
2017-Dec-11 08:32S 27°52' E 153°20'0 0.0
2017-Dec-11 08:20S 27°52' E 153°20'0 0.0
2017-Dec-11 06:11S 27°52' E 153°20'0 0.0
2017-Dec-11 05:44S 27°52' E 153°20'0 0.0
2017-Dec-11 05:20S 27°52' E 153°20'0 0.0
2017-Dec-11 04:20S 27°52' E 153°20'0 0.0
2017-Dec-09 15:14S 27°52' E 153°20'0 0.0
2017-Dec-09 05:56S 27°52' E 153°20'0 0.0
2017-Dec-09 05:29S 27°52' E 153°20'0 0.0
2017-Dec-08 17:56S 27°52' E 153°20'0 0.0
2017-Dec-08 05:38S 27°52' E 153°20'0 0.0
2017-Dec-08 05:26S 27°52' E 153°20'0 0.0
2017-Dec-08 04:59S 27°52' E 153°20'0 0.0
2017-Dec-08 04:29S 27°52' E 153°20'0 0.0
2017-Dec-08 03:56S 27°52' E 153°20'0 0.0
2017-Dec-07 21:41S 27°52' E 153°20'0 0.0
2017-Dec-07 03:50S 27°52' E 153°20'  
Track history (hours):
 
Tides and Currents Weather Stations Pressure Air Temp Water Temp Dewpoint Dewpoint Depression Visibility Wind Speed Wind Dir Waves Ship Positions

Adagio

Last reported at 2017-Dec-13 07:07 UTC. Time now 2017-Dec-18 11:16 UTC.
Position S 27°36' E 153°19'.

Length 22 m.

Type: Pleasure craft. MMSI: 235067171.

Date/timePositionNaut miles runAvg speedWind from/ knotsBaromVisibWave heightAir tempDewpointWater temp
2017-Dec-13 07:07S 27°36' E 153°19'1 9.1
2017-Dec-13 07:00S 27°37' E 153°19'4 7.1
2017-Dec-13 06:30S 27°40' E 153°22'4 8.1
2017-Dec-13 06:00S 27°44' E 153°22'3 5.8
2017-Dec-13 05:30S 27°47' E 153°23'3 5.8
2017-Dec-13 05:00S 27°49' E 153°24'3 6.2
2017-Dec-13 04:30S 27°52' E 153°24'2 4.2
2017-Dec-13 04:00S 27°51' E 153°22'2 3.0
2017-Dec-13 03:30S 27°52' E 153°20'0 0.2
2017-Dec-13 02:38S 27°52' E 153°20'0 0.0
2017-Dec-12 23:02S 27°52' E 153°20'0 0.0
2017-Dec-12 18:32S 27°52' E 153°20'0 0.0
2017-Dec-12 15:50S 27°52' E 153°20'0 0.0
2017-Dec-12 10:47S 27°52' E 153°20'0 0.0
2017-Dec-12 01:38S 27°52' E 153°20'0 0.0
2017-Dec-12 01:26S 27°52' E 153°20'0 0.0
2017-Dec-11 11:02S 27°52' E 153°20'0 0.0
2017-Dec-11 10:56S 27°52' E 153°20'0 0.0
2017-Dec-11 10:26S 27°52' E 153°20'0 0.0
2017-Dec-11 09:44S 27°52' E 153°20'0 0.0
2017-Dec-11 08:32S 27°52' E 153°20'0 0.0
2017-Dec-11 08:20S 27°52' E 153°20'0 0.0
2017-Dec-11 06:11S 27°52' E 153°20'0 0.0
2017-Dec-11 05:44S 27°52' E 153°20'0 0.0
2017-Dec-11 05:20S 27°52' E 153°20'0 0.0
2017-Dec-11 04:20S 27°52' E 153°20'0 0.0
2017-Dec-09 15:14S 27°52' E 153°20'0 0.0
2017-Dec-09 05:56S 27°52' E 153°20'0 0.0
2017-Dec-09 05:29S 27°52' E 153°20'0 0.0
2017-Dec-08 17:56S 27°52' E 153°20'0 0.0
2017-Dec-08 05:38S 27°52' E 153°20'0 0.0
2017-Dec-08 05:26S 27°52' E 153°20'0 0.0
2017-Dec-08 04:59S 27°52' E 153°20'0 0.0
2017-Dec-08 04:29S 27°52' E 153°20'0 0.0
2017-Dec-08 03:56S 27°52' E 153°20'0 0.0
2017-Dec-07 21:41S 27°52' E 153°20'0 0.0
2017-Dec-07 03:50S 27°52' E 153°20'  

Dump ship's entire track history